Largo — PFNC — position and weather

sailwx.info

Track history (hours):
 
Tides and Currents Weather Stations Pressure Air Temp Water Temp Dewpoint Dewpoint Depression Visibility Wind Speed Wind Dir Waves Ship Positions

Largo

Last reported at 2017-Mar-26 19:33 UTC. Time now 2017-Mar-26 20:44 UTC.
Position N 37°18' E 004°00'.

Length 91 m; draft 4.8 m.

Type: Cargo ship. MMSI: 245645000.

Date/timePositionNaut miles runAvg speedWind from/ knotsBaromVisibWave heightAir tempDewpointWater temp
2017-Mar-26 19:33N 37°18' E 004°00'9 9.2
2017-Mar-26 18:33N 37°15' E 004°12'13 9.5
2017-Mar-26 17:14N 37°12' E 004°27'19 9.5
2017-Mar-26 15:11N 37°06' E 004°50'6 8.9
2017-Mar-26 14:33N 37°05' E 004°57'9 8.7
2017-Mar-26 13:33N 37°02' E 005°07'11 8.9
2017-Mar-26 12:19N 36°59' E 005°21'7 8.9
2017-Mar-26 11:33N 36°58' E 005°29'  
2017-Mar-22 17:09N 38°24' E 003°06'6 9.0
2017-Mar-22 16:30N 38°27' E 002°60'8 8.8
2017-Mar-22 15:33N 38°32' E 002°51'9 8.8
2017-Mar-22 14:33N 38°37' E 002°42'13 8.9
2017-Mar-22 13:09N 38°44' E 002°29'5 8.8
2017-Mar-22 12:33N 38°47' E 002°23'9 8.6
2017-Mar-22 11:33N 38°52' E 002°14'9 9.0
2017-Mar-22 10:34N 38°57' E 002°04'9 8.9
2017-Mar-22 09:33N 39°02' E 001°55'9 9.1
2017-Mar-22 08:33N 39°07' E 001°45'9 9.0
2017-Mar-22 07:33N 39°12' E 001°36'9 9.1
2017-Mar-22 06:33N 39°17' E 001°26'9 8.5
2017-Mar-22 05:31N 39°22' E 001°16'68 8.4
2017-Mar-21 21:26N 39°58' E 000°01'9 0.4
2017-Mar-20 23:33N 39°57' E 000°13'16 2.2
2017-Mar-20 16:12N 39°40' E 000°12'59 8.3
2017-Mar-20 09:06N 38°44' E 000°34'4 8.2
2017-Mar-20 08:33N 38°40' E 000°36'11 8.2
2017-Mar-20 07:09N 38°29' E 000°39'5 8.4
2017-Mar-20 06:32N 38°24' E 000°41'83 8.3
2017-Mar-19 20:33N 37°03' E 001°08'8 8.2
2017-Mar-19 19:33N 36°55' E 001°11'8 8.3
2017-Mar-19 18:33N 36°47' E 001°13'16 8.0
2017-Mar-19 16:33N 36°32' E 001°19'0 0.1
2017-Mar-19 15:24N 36°32' E 001°19'0 0.0
2017-Mar-19 14:24N 36°32' E 001°19'0 0.0
2017-Mar-18 17:31N 36°32' E 001°19'  
Track history (hours):
 
Tides and Currents Weather Stations Pressure Air Temp Water Temp Dewpoint Dewpoint Depression Visibility Wind Speed Wind Dir Waves Ship Positions

Largo

Last reported at 2017-Mar-26 19:33 UTC. Time now 2017-Mar-26 20:44 UTC.
Position N 37°18' E 004°00'.

Length 91 m; draft 4.8 m.

Type: Cargo ship. MMSI: 245645000.

Date/timePositionNaut miles runAvg speedWind from/ knotsBaromVisibWave heightAir tempDewpointWater temp
2017-Mar-26 19:33N 37°18' E 004°00'9 9.2
2017-Mar-26 18:33N 37°15' E 004°12'13 9.5
2017-Mar-26 17:14N 37°12' E 004°27'19 9.5
2017-Mar-26 15:11N 37°06' E 004°50'6 8.9
2017-Mar-26 14:33N 37°05' E 004°57'9 8.7
2017-Mar-26 13:33N 37°02' E 005°07'11 8.9
2017-Mar-26 12:19N 36°59' E 005°21'7 8.9
2017-Mar-26 11:33N 36°58' E 005°29'  
2017-Mar-22 17:09N 38°24' E 003°06'6 9.0
2017-Mar-22 16:30N 38°27' E 002°60'8 8.8
2017-Mar-22 15:33N 38°32' E 002°51'9 8.8
2017-Mar-22 14:33N 38°37' E 002°42'13 8.9
2017-Mar-22 13:09N 38°44' E 002°29'5 8.8
2017-Mar-22 12:33N 38°47' E 002°23'9 8.6
2017-Mar-22 11:33N 38°52' E 002°14'9 9.0
2017-Mar-22 10:34N 38°57' E 002°04'9 8.9
2017-Mar-22 09:33N 39°02' E 001°55'9 9.1
2017-Mar-22 08:33N 39°07' E 001°45'9 9.0
2017-Mar-22 07:33N 39°12' E 001°36'9 9.1
2017-Mar-22 06:33N 39°17' E 001°26'9 8.5
2017-Mar-22 05:31N 39°22' E 001°16'68 8.4
2017-Mar-21 21:26N 39°58' E 000°01'9 0.4
2017-Mar-20 23:33N 39°57' E 000°13'16 2.2
2017-Mar-20 16:12N 39°40' E 000°12'59 8.3
2017-Mar-20 09:06N 38°44' E 000°34'4 8.2
2017-Mar-20 08:33N 38°40' E 000°36'11 8.2
2017-Mar-20 07:09N 38°29' E 000°39'5 8.4
2017-Mar-20 06:32N 38°24' E 000°41'83 8.3
2017-Mar-19 20:33N 37°03' E 001°08'8 8.2
2017-Mar-19 19:33N 36°55' E 001°11'8 8.3
2017-Mar-19 18:33N 36°47' E 001°13'16 8.0
2017-Mar-19 16:33N 36°32' E 001°19'0 0.1
2017-Mar-19 15:24N 36°32' E 001°19'0 0.0
2017-Mar-19 14:24N 36°32' E 001°19'0 0.0
2017-Mar-18 17:31N 36°32' E 001°19'  

Dump ship's entire track history